Time;durP1;ratioP1;P1;durP2;ratioP2;P2;SDS_P1;SDS_P2;PMS_P1;PMS_P2;Temp;Humidity;BMP_temperature;BMP_pressure;BME280_temperature;BME280_humidity;BME280_pressure;Samples;Min_cycle;Max_cycle;Signal;HPM_P1;HPM_P2
2023/08/28 00:00:59;;;;;;;3.17;1.80;;;13.80;99.90;;;;;;5077631;28;20082;-60
2023/08/28 00:03:26;;;;;;;1.90;1.65;;;13.80;99.90;;;;;;5095480;27;20680;-58
2023/08/28 00:05:51;;;;;;;5.15;2.00;;;13.80;99.90;;;;;;5077599;28;20044;-61
2023/08/28 00:08:17;;;;;;;5.25;1.88;;;13.80;99.90;;;;;;5090062;27;20043;-61
2023/08/28 00:10:43;;;;;;;5.28;1.77;;;13.80;99.90;;;;;;5082524;27;20039;-59
2023/08/28 00:13:09;;;;;;;2.38;1.80;;;13.70;99.90;;;;;;5084552;27;20129;-60
2023/08/28 00:15:35;;;;;;;3.47;1.80;;;13.70;99.90;;;;;;5095071;27;20040;-61
2023/08/28 00:18:00;;;;;;;3.92;1.60;;;13.70;99.90;;;;;;5080225;27;20047;-61
2023/08/28 00:20:26;;;;;;;2.65;1.60;;;13.70;99.90;;;;;;5093026;28;20043;-61
2023/08/28 00:22:52;;;;;;;2.67;1.75;;;13.70;99.90;;;;;;5092679;27;20134;-60
2023/08/28 00:25:18;;;;;;;2.95;1.55;;;13.70;99.90;;;;;;5093320;27;20035;-59
2023/08/28 00:27:44;;;;;;;4.55;2.13;;;13.70;99.90;;;;;;5092799;28;20871;-61
2023/08/28 00:30:10;;;;;;;3.25;1.60;;;13.70;99.90;;;;;;5094503;27;20055;-59
2023/08/28 00:32:36;;;;;;;4.30;1.70;;;13.70;99.90;;;;;;5093578;27;20383;-61
2023/08/28 00:35:02;;;;;;;3.60;1.55;;;13.70;99.90;;;;;;5077914;27;20038;-61
2023/08/28 00:37:27;;;;;;;2.92;1.67;;;13.70;99.90;;;;;;5088650;28;20472;-59
2023/08/28 00:39:53;;;;;;;2.10;1.77;;;13.70;99.90;;;;;;5095716;27;20751;-60
2023/08/28 00:42:21;;;;;;;7.75;1.70;;;13.70;99.90;;;;;;5083372;28;20070;-60
2023/08/28 00:44:46;;;;;;;3.13;1.70;;;13.70;99.90;;;;;;5090087;27;20046;-61
2023/08/28 00:47:13;;;;;;;4.20;1.80;;;13.70;99.90;;;;;;5091802;27;20031;-60
2023/08/28 00:49:39;;;;;;;3.17;1.50;;;13.60;99.90;;;;;;5092741;28;20058;-60
2023/08/28 00:52:06;;;;;;;6.07;1.80;;;13.60;99.90;;;;;;5094698;28;20089;-58
2023/08/28 00:54:32;;;;;;;3.78;1.55;;;13.60;99.90;;;;;;5094294;27;20044;-60
2023/08/28 00:56:59;;;;;;;4.22;1.67;;;13.50;99.90;;;;;;5092220;28;20045;-61
2023/08/28 00:59:27;;;;;;;2.35;1.65;;;13.60;99.90;;;;;;5090862;28;20051;-59
2023/08/28 01:01:53;;;;;;;3.05;1.70;;;13.60;99.90;;;;;;5075253;28;20089;-61
2023/08/28 01:04:19;;;;;;;3.50;1.70;;;13.60;99.90;;;;;;5075609;27;20113;-60
2023/08/28 01:06:58;;;;;;;3.30;1.65;;;13.60;99.90;;;;;;5095068;28;20043;-60
2023/08/28 01:10:00;;;;;;;5.57;1.60;;;13.50;99.90;;;;;;5086743;27;20146;-60
2023/08/28 01:12:53;;;;;;;6.28;1.80;;;13.50;99.90;;;;;;5069525;28;20055;-61
2023/08/28 01:15:24;;;;;;;3.08;1.75;;;13.50;99.90;;;;;;5079355;27;20066;-60
2023/08/28 01:18:00;;;;;;;3.28;1.77;;;13.50;99.90;;;;;;5085948;27;20038;-59
2023/08/28 01:20:29;;;;;;;3.00;1.70;;;13.50;99.90;;;;;;5072259;28;20111;-61
2023/08/28 01:23:01;;;;;;;3.05;2.10;;;13.50;99.90;;;;;;5088964;28;20044;-59
2023/08/28 01:25:29;;;;;;;4.18;1.80;;;13.50;99.90;;;;;;5095386;27;20039;-61
2023/08/28 01:27:56;;;;;;;3.72;1.90;;;13.50;99.90;;;;;;5079399;27;20043;-61
2023/08/28 01:30:22;;;;;;;2.83;1.70;;;13.50;99.90;;;;;;5092603;28;20044;-61
2023/08/28 01:32:48;;;;;;;1.98;1.80;;;13.50;99.90;;;;;;5089737;28;20040;-60
2023/08/28 01:35:21;;;;;;;4.25;2.08;;;13.40;99.90;;;;;;5094284;28;20551;-61
2023/08/28 01:38:22;;;;;;;2.92;1.95;;;13.40;99.90;;;;;;5092810;28;20036;-61
2023/08/28 01:40:59;;;;;;;2.35;1.83;;;13.40;99.90;;;;;;5084902;28;20047;-61
2023/08/28 01:43:31;;;;;;;2.88;2.30;;;13.40;99.90;;;;;;5079920;28;20451;-60
2023/08/28 01:45:57;;;;;;;4.97;2.40;;;13.30;99.90;;;;;;5092883;28;20038;-61
2023/08/28 01:48:27;;;;;;;4.10;2.20;;;13.30;99.90;;;;;;5091943;28;20767;-60
2023/08/28 01:50:53;;;;;;;3.83;2.50;;;13.30;99.90;;;;;;5090892;28;20040;-59
2023/08/28 01:53:19;;;;;;;5.20;2.60;;;13.20;99.90;;;;;;5099272;28;21349;-61
2023/08/28 01:55:45;;;;;;;4.00;2.50;;;13.20;99.90;;;;;;5090716;27;20207;-59
2023/08/28 01:58:12;;;;;;;3.33;2.28;;;13.20;99.90;;;;;;5096698;27;20080;-61
2023/08/28 02:00:37;;;;;;;6.20;2.25;;;13.10;99.90;;;;;;5097886;27;20123;-59
2023/08/28 02:03:05;;;;;;;4.22;2.30;;;13.10;99.90;;;;;;5095705;28;20439;-60
2023/08/28 02:05:30;;;;;;;6.43;2.38;;;13.10;99.90;;;;;;5098413;28;20075;-61
2023/08/28 02:07:56;;;;;;;2.40;2.20;;;13.10;99.90;;;;;;5095197;28;20071;-60
2023/08/28 02:10:22;;;;;;;4.47;2.17;;;13.10;99.90;;;;;;5098964;28;20036;-58
2023/08/28 02:12:47;;;;;;;4.07;2.42;;;13.10;99.90;;;;;;5092683;28;20659;-60
2023/08/28 02:15:13;;;;;;;2.90;2.28;;;13.10;99.90;;;;;;5077620;28;20040;-61
2023/08/28 02:17:39;;;;;;;3.75;2.53;;;13.10;99.90;;;;;;5095159;28;20522;-61
2023/08/28 02:20:05;;;;;;;3.85;2.03;;;13.00;99.90;;;;;;5096939;28;20036;-59
2023/08/28 02:22:31;;;;;;;5.20;2.20;;;13.00;99.90;;;;;;5097470;28;20051;-59
2023/08/28 02:24:58;;;;;;;3.28;2.25;;;13.00;99.90;;;;;;5095876;28;20043;-60
2023/08/28 02:27:24;;;;;;;4.35;2.13;;;13.00;99.90;;;;;;5081219;28;20138;-60
2023/08/28 02:29:50;;;;;;;3.50;2.20;;;13.00;99.90;;;;;;5097001;28;20122;-60
2023/08/28 02:32:16;;;;;;;3.25;2.42;;;12.90;99.90;;;;;;5097599;28;20147;-60
2023/08/28 02:34:43;;;;;;;3.10;2.30;;;12.90;99.90;;;;;;5080539;28;20122;-59
2023/08/28 02:37:09;;;;;;;3.85;2.50;;;12.90;99.90;;;;;;5099135;28;20082;-60
2023/08/28 02:39:34;;;;;;;4.88;2.30;;;12.90;99.90;;;;;;5098297;28;20075;-60
2023/08/28 02:42:00;;;;;;;4.05;2.20;;;12.90;99.90;;;;;;5098139;28;20122;-61
2023/08/28 02:44:26;;;;;;;4.00;2.33;;;12.90;99.90;;;;;;5098649;28;20027;-61
2023/08/28 02:46:51;;;;;;;3.55;2.42;;;12.90;99.90;;;;;;5084444;28;20027;-61
2023/08/28 02:49:17;;;;;;;2.67;2.47;;;12.90;99.90;;;;;;5098379;28;20118;-60
2023/08/28 02:51:43;;;;;;;4.05;2.30;;;13.00;99.90;;;;;;5098978;27;20047;-60
2023/08/28 02:54:09;;;;;;;3.35;2.30;;;13.00;99.90;;;;;;5099179;27;20398;-60
2023/08/28 02:56:38;;;;;;;3.17;2.00;;;13.00;99.90;;;;;;5099879;27;20039;-60
2023/08/28 02:59:04;;;;;;;2.78;1.92;;;13.00;99.90;;;;;;5100344;28;20151;-61
2023/08/28 03:01:34;;;;;;;4.00;1.95;;;13.00;99.90;;;;;;5096800;28;20052;-61
2023/08/28 03:04:06;;;;;;;3.35;2.00;;;13.00;99.90;;;;;;5083890;28;20053;-60
2023/08/28 03:06:36;;;;;;;3.63;2.28;;;13.00;99.90;;;;;;5095611;28;20040;-61
2023/08/28 03:09:03;;;;;;;4.95;2.03;;;13.00;99.90;;;;;;5076272;27;20069;-60
2023/08/28 03:11:29;;;;;;;2.38;2.10;;;12.90;99.90;;;;;;5095754;27;20054;-60
2023/08/28 03:13:54;;;;;;;4.20;2.00;;;12.90;99.90;;;;;;5093798;28;20059;-59
2023/08/28 03:16:20;;;;;;;4.65;2.38;;;12.80;99.90;;;;;;5095987;28;20042;-59
2023/08/28 03:18:46;;;;;;;3.88;2.40;;;12.70;99.90;;;;;;5094120;28;20679;-60
2023/08/28 03:21:12;;;;;;;4.15;2.10;;;12.60;99.90;;;;;;5092760;27;20044;-60
2023/08/28 03:23:37;;;;;;;4.90;2.53;;;12.60;99.90;;;;;;5094520;27;20137;-60
2023/08/28 03:26:03;;;;;;;7.75;2.70;;;12.60;99.90;;;;;;5090852;27;20024;-60
2023/08/28 03:28:29;;;;;;;4.88;2.60;;;12.60;99.90;;;;;;5092635;28;20165;-60
2023/08/28 03:31:00;;;;;;;5.07;2.55;;;12.70;99.90;;;;;;5092381;28;22566;-60
2023/08/28 03:33:26;;;;;;;5.00;2.30;;;12.70;99.90;;;;;;5097376;27;20048;-60
2023/08/28 03:35:52;;;;;;;2.50;2.30;;;12.70;99.90;;;;;;5097182;28;20043;-60
2023/08/28 03:38:18;;;;;;;3.58;2.33;;;12.70;99.90;;;;;;5099419;27;20047;-61
2023/08/28 03:40:46;;;;;;;5.53;2.42;;;12.80;99.90;;;;;;5098679;28;20044;-60
2023/08/28 03:43:12;;;;;;;3.47;2.50;;;12.70;99.90;;;;;;5098368;27;20035;-59
2023/08/28 03:45:38;;;;;;;4.78;2.42;;;12.80;99.90;;;;;;5097178;27;20040;-60
2023/08/28 03:48:04;;;;;;;5.00;2.47;;;12.70;99.90;;;;;;5098551;27;20092;-61
2023/08/28 03:50:30;;;;;;;2.90;2.47;;;12.70;99.90;;;;;;5079492;28;20051;-61
2023/08/28 03:52:57;;;;;;;4.60;2.20;;;12.70;99.90;;;;;;5098233;28;20498;-60
2023/08/28 03:55:23;;;;;;;6.05;2.80;;;12.70;99.90;;;;;;5095763;28;20032;-61
2023/08/28 03:57:52;;;;;;;3.72;2.70;;;12.70;99.90;;;;;;5101525;27;20043;-61
2023/08/28 04:00:18;;;;;;;2.50;2.10;;;12.60;99.90;;;;;;5070232;28;20066;-60
2023/08/28 04:02:48;;;;;;;4.57;2.58;;;12.70;99.90;;;;;;5084305;28;20055;-60
2023/08/28 04:05:16;;;;;;;5.53;2.47;;;12.60;99.90;;;;;;5101119;28;20043;-61
2023/08/28 04:07:43;;;;;;;4.57;2.20;;;12.60;99.90;;;;;;5101230;28;20031;-60
2023/08/28 04:10:09;;;;;;;4.18;2.88;;;12.50;99.90;;;;;;5101190;27;20048;-60
2023/08/28 04:12:35;;;;;;;3.50;2.83;;;12.50;99.90;;;;;;5101801;27;20040;-60
2023/08/28 04:15:01;;;;;;;3.67;2.83;;;12.50;99.90;;;;;;5082805;28;20031;-59
2023/08/28 04:17:27;;;;;;;4.45;2.88;;;12.50;99.90;;;;;;5100648;27;20043;-60
2023/08/28 04:19:55;;;;;;;3.97;2.80;;;12.50;99.90;;;;;;5101088;27;20721;-59
2023/08/28 04:22:22;;;;;;;3.35;2.63;;;12.40;99.90;;;;;;5085907;28;20379;-60
2023/08/28 04:24:50;;;;;;;5.93;2.80;;;12.40;99.90;;;;;;5080342;28;20047;-61
2023/08/28 04:27:16;;;;;;;5.05;2.67;;;12.40;99.90;;;;;;5082479;28;20493;-60
2023/08/28 04:29:42;;;;;;;5.47;3.05;;;12.50;99.90;;;;;;5098406;27;20115;-60
2023/08/28 04:32:09;;;;;;;2.92;2.55;;;12.50;99.90;;;;;;5077025;28;20500;-60
2023/08/28 04:34:35;;;;;;;3.83;2.67;;;12.40;99.90;;;;;;5100539;27;20044;-61
2023/08/28 04:37:01;;;;;;;5.43;2.92;;;12.50;99.90;;;;;;5098385;27;20042;-60
2023/08/28 04:39:28;;;;;;;3.58;2.55;;;12.50;99.90;;;;;;5083466;28;20052;-60
2023/08/28 04:41:53;;;;;;;5.15;2.40;;;12.50;99.90;;;;;;5101152;28;20036;-60
2023/08/28 04:44:19;;;;;;;5.72;2.90;;;12.50;99.90;;;;;;5097171;28;20342;-59
2023/08/28 04:46:47;;;;;;;2.50;2.30;;;12.50;99.90;;;;;;5095897;27;20127;-59
2023/08/28 04:49:13;;;;;;;3.15;2.40;;;12.50;99.90;;;;;;5098207;28;20032;-60
2023/08/28 04:51:39;;;;;;;3.25;2.50;;;12.50;99.90;;;;;;5099393;28;20079;-61
2023/08/28 04:54:04;;;;;;;5.72;2.70;;;12.50;99.90;;;;;;5097779;28;20112;-60
2023/08/28 04:56:30;;;;;;;5.18;2.60;;;12.50;99.90;;;;;;5100352;27;20078;-60
2023/08/28 04:58:56;;;;;;;3.55;2.42;;;12.50;99.90;;;;;;5101487;27;20032;-60
2023/08/28 05:01:22;;;;;;;4.97;2.75;;;12.50;99.90;;;;;;5081599;28;20040;-56
2023/08/28 05:03:47;;;;;;;6.43;2.55;;;12.50;99.90;;;;;;5099940;27;20517;-61
2023/08/28 05:06:13;;;;;;;6.28;2.50;;;12.50;99.90;;;;;;5097862;27;20035;-60
2023/08/28 05:08:39;;;;;;;3.00;2.60;;;12.50;99.90;;;;;;5099647;27;20048;-61
2023/08/28 05:11:04;;;;;;;5.30;2.53;;;12.50;99.90;;;;;;5099488;27;20047;-59
2023/08/28 05:13:30;;;;;;;4.90;2.95;;;12.50;99.90;;;;;;5101220;27;20062;-61
2023/08/28 05:15:56;;;;;;;3.38;2.10;;;12.50;99.90;;;;;;5078711;27;21034;-61
2023/08/28 05:18:22;;;;;;;4.20;2.40;;;12.50;99.90;;;;;;5101816;28;20099;-60
2023/08/28 05:20:48;;;;;;;3.90;2.60;;;12.50;99.90;;;;;;5079693;28;20048;-60
2023/08/28 05:23:14;;;;;;;3.25;2.60;;;12.50;99.90;;;;;;5100748;27;20406;-60
2023/08/28 05:25:40;;;;;;;4.07;2.67;;;12.50;99.90;;;;;;5095968;27;20039;-60
2023/08/28 05:28:05;;;;;;;6.40;2.95;;;12.50;99.90;;;;;;5097544;27;20042;-59
2023/08/28 05:30:31;;;;;;;4.40;2.97;;;12.60;99.90;;;;;;5097419;27;20035;-61
2023/08/28 05:32:57;;;;;;;3.08;2.65;;;12.60;99.90;;;;;;5083223;28;20043;-60
2023/08/28 05:35:23;;;;;;;3.70;3.10;;;12.60;99.90;;;;;;5099588;28;20513;-61
2023/08/28 05:37:50;;;;;;;4.10;2.90;;;12.70;99.90;;;;;;5095356;27;20066;-60
2023/08/28 05:40:16;;;;;;;4.47;2.75;;;12.70;99.90;;;;;;5075653;28;20047;-59
2023/08/28 05:42:45;;;;;;;4.18;3.00;;;12.70;99.90;;;;;;5079731;27;20035;-60
2023/08/28 05:45:11;;;;;;;8.00;2.97;;;12.80;99.90;;;;;;5094413;27;21058;-60
2023/08/28 05:47:37;;;;;;;3.75;2.88;;;12.80;99.90;;;;;;5097329;27;20028;-60
2023/08/28 05:50:06;;;;;;;4.68;2.58;;;12.80;99.90;;;;;;5078067;28;20039;-59
2023/08/28 05:52:32;;;;;;;6.50;2.83;;;12.80;99.90;;;;;;5096346;28;20525;-60
2023/08/28 05:54:58;;;;;;;7.30;3.15;;;12.80;99.90;;;;;;5097354;27;20067;-61
2023/08/28 05:57:23;;;;;;;4.70;2.95;;;12.90;99.90;;;;;;5093398;28;20054;-60
2023/08/28 05:59:52;;;;;;;5.22;2.78;;;12.90;99.90;;;;;;5096002;27;20574;-60
2023/08/28 06:02:18;;;;;;;5.05;3.83;;;13.00;99.90;;;;;;5097383;28;20542;-61
2023/08/28 06:04:47;;;;;;;6.85;2.90;;;13.00;99.90;;;;;;5081946;28;20043;-59
2023/08/28 06:07:13;;;;;;;4.97;3.10;;;13.10;99.90;;;;;;5099315;27;20513;-60
2023/08/28 06:09:41;;;;;;;4.25;3.13;;;13.10;99.90;;;;;;5098042;27;21165;-60
2023/08/28 06:12:07;;;;;;;5.72;3.13;;;13.10;99.90;;;;;;5096183;28;20044;-60
2023/08/28 06:14:32;;;;;;;7.15;3.50;;;13.20;99.90;;;;;;5097609;27;20043;-60
2023/08/28 06:16:58;;;;;;;6.30;2.85;;;13.20;99.90;;;;;;5093962;28;20036;-60
2023/08/28 06:19:24;;;;;;;5.57;3.55;;;13.30;99.90;;;;;;5046352;27;20052;-60
2023/08/28 06:21:50;;;;;;;5.90;3.20;;;13.40;99.90;;;;;;5051596;28;20114;-60
2023/08/28 06:24:16;;;;;;;5.95;3.55;;;13.40;99.90;;;;;;5087927;28;20044;-60
2023/08/28 06:26:42;;;;;;;4.47;3.10;;;13.50;99.90;;;;;;5088185;28;20116;-59
2023/08/28 06:29:08;;;;;;;7.47;3.40;;;13.50;99.90;;;;;;5089397;28;20048;-60
2023/08/28 06:31:34;;;;;;;4.32;3.13;;;13.60;99.90;;;;;;5093646;28;20070;-59
2023/08/28 06:34:00;;;;;;;6.35;2.90;;;13.70;99.90;;;;;;5074180;28;20044;-60
2023/08/28 06:36:26;;;;;;;7.32;3.10;;;13.70;99.90;;;;;;5091822;28;20043;-60
2023/08/28 06:38:52;;;;;;;4.55;2.83;;;13.90;99.90;;;;;;5093671;28;20042;-60
2023/08/28 06:41:21;;;;;;;5.20;2.60;;;13.90;99.90;;;;;;5092371;28;20123;-60
2023/08/28 06:43:48;;;;;;;6.28;3.05;;;14.00;99.90;;;;;;5091617;28;20036;-60
2023/08/28 06:46:13;;;;;;;5.18;2.85;;;14.10;99.90;;;;;;5093680;28;20043;-60
2023/08/28 06:48:39;;;;;;;4.57;3.05;;;14.20;99.90;;;;;;5094943;28;20028;-60
2023/08/28 06:51:05;;;;;;;8.68;2.90;;;14.20;99.90;;;;;;5092600;28;20126;-60
2023/08/28 06:53:31;;;;;;;5.63;2.80;;;14.30;99.90;;;;;;5063138;28;20082;-59
2023/08/28 06:55:57;;;;;;;5.75;3.67;;;14.40;99.90;;;;;;5096753;28;20047;-60
2023/08/28 06:58:23;;;;;;;6.35;2.40;;;14.50;99.90;;;;;;5092521;28;20086;-60
2023/08/28 07:00:49;;;;;;;5.28;2.80;;;14.60;99.90;;;;;;5087315;28;20054;-60
2023/08/28 07:03:14;;;;;;;3.92;2.30;;;14.70;99.90;;;;;;5087067;28;20501;-61
2023/08/28 07:05:40;;;;;;;8.23;2.58;;;14.70;99.90;;;;;;5071703;28;20101;-60
2023/08/28 07:08:06;;;;;;;6.78;2.30;;;14.80;99.90;;;;;;5087132;28;20047;-60
2023/08/28 07:10:32;;;;;;;7.30;2.78;;;14.90;99.90;;;;;;5083177;28;20440;-60
2023/08/28 07:12:57;;;;;;;3.83;2.47;;;15.00;99.90;;;;;;5085223;28;20040;-60
2023/08/28 07:15:29;;;;;;;6.07;2.30;;;15.10;99.90;;;;;;5080373;28;20028;-60
2023/08/28 07:17:55;;;;;;;6.18;2.33;;;15.10;99.90;;;;;;5085353;28;20126;-61
2023/08/28 07:20:23;;;;;;;3.65;2.30;;;15.20;99.90;;;;;;5060974;28;20052;-60
2023/08/28 07:22:49;;;;;;;4.63;2.50;;;15.40;99.90;;;;;;5077555;28;20047;-60
2023/08/28 07:25:16;;;;;;;3.33;2.65;;;15.40;99.90;;;;;;5066742;28;20486;-61
2023/08/28 07:27:43;;;;;;;7.07;2.58;;;15.50;99.90;;;;;;5086265;28;21124;-60
2023/08/28 07:30:09;;;;;;;4.32;2.47;;;15.60;99.90;;;;;;5092006;28;20042;-61
2023/08/28 07:32:35;;;;;;;3.33;2.58;;;15.70;99.90;;;;;;5080564;28;20055;-61
2023/08/28 07:35:00;;;;;;;8.90;3.15;;;15.90;99.90;;;;;;5063132;28;20054;-60
2023/08/28 07:37:30;;;;;;;4.85;2.50;;;16.00;99.90;;;;;;5098483;28;20088;-60
2023/08/28 07:39:55;;;;;;;3.90;2.33;;;16.20;99.90;;;;;;5097671;27;20031;-60
2023/08/28 07:42:21;;;;;;;3.33;2.28;;;16.30;99.90;;;;;;5096338;28;20042;-60
2023/08/28 07:44:47;;;;;;;4.47;2.35;;;16.40;99.90;;;;;;5074896;28;20043;-60
2023/08/28 07:47:13;;;;;;;3.28;2.10;;;16.40;99.90;;;;;;5097596;27;20554;-61
2023/08/28 07:49:41;;;;;;;2.67;2.00;;;16.50;99.90;;;;;;5097535;27;20047;-60
2023/08/28 07:52:07;;;;;;;3.97;2.13;;;16.50;99.90;;;;;;5079062;27;20054;-60
2023/08/28 07:54:33;;;;;;;2.97;2.15;;;16.50;99.90;;;;;;5079761;28;20824;-60
2023/08/28 07:56:58;;;;;;;6.40;1.95;;;16.50;99.90;;;;;;5093983;27;20122;-60
2023/08/28 07:59:24;;;;;;;3.58;1.60;;;16.70;99.90;;;;;;5082351;28;20043;-60
2023/08/28 08:01:50;;;;;;;4.13;1.65;;;16.80;99.90;;;;;;5092062;27;20126;-60
2023/08/28 08:04:15;;;;;;;4.70;1.80;;;16.90;99.90;;;;;;5096835;27;20497;-60
2023/08/28 08:06:42;;;;;;;5.45;2.15;;;17.00;99.90;;;;;;5076272;28;20040;-60
2023/08/28 08:09:09;;;;;;;3.33;1.50;;;17.20;99.90;;;;;;5095561;28;20043;-60
2023/08/28 08:11:35;;;;;;;3.83;1.40;;;17.30;99.90;;;;;;5081691;28;20043;-60
2023/08/28 08:14:01;;;;;;;4.15;1.42;;;17.50;99.90;;;;;;5078708;28;20039;-60
2023/08/28 08:16:26;;;;;;;4.07;1.30;;;17.70;99.90;;;;;;5076401;28;20442;-60
2023/08/28 08:18:52;;;;;;;4.15;1.27;;;17.80;99.90;;;;;;5095678;27;20039;-60
2023/08/28 08:21:18;;;;;;;6.03;1.20;;;18.00;99.90;;;;;;5095349;27;20123;-61
2023/08/28 08:23:44;;;;;;;3.88;1.10;;;18.00;99.90;;;;;;5065759;28;20043;-60
2023/08/28 08:26:10;;;;;;;2.38;1.05;;;17.90;99.90;;;;;;5093153;28;20035;-60
2023/08/28 08:28:38;;;;;;;3.80;1.20;;;17.80;99.90;;;;;;5091545;28;20516;-60
2023/08/28 08:31:04;;;;;;;3.63;1.00;;;17.80;99.90;;;;;;5095979;27;20482;-61
2023/08/28 08:33:29;;;;;;;0.98;0.70;;;17.80;99.90;;;;;;5078272;28;20040;-60
2023/08/28 08:35:55;;;;;;;1.85;0.80;;;17.80;99.90;;;;;;5094105;27;20390;-60
2023/08/28 08:38:21;;;;;;;2.20;0.80;;;17.70;99.90;;;;;;5095204;28;20052;-61
2023/08/28 08:40:51;;;;;;;2.33;1.00;;;17.70;99.90;;;;;;5074011;28;20105;-61
2023/08/28 08:43:17;;;;;;;4.80;1.00;;;17.90;99.90;;;;;;5079251;27;20046;-60
2023/08/28 08:45:44;;;;;;;1.30;0.80;;;18.10;99.90;;;;;;5088654;28;20043;-61
2023/08/28 08:48:16;;;;;;;2.35;0.80;;;18.30;99.90;;;;;;5090835;27;20131;-61
2023/08/28 08:50:43;;;;;;;2.88;0.93;;;18.50;99.90;;;;;;5089450;28;20052;-61
2023/08/28 08:53:25;;;;;;;2.08;0.70;;;18.70;99.90;;;;;;5089124;27;20391;-60
2023/08/28 08:55:54;;;;;;;2.58;0.75;;;18.80;99.90;;;;;;5085574;27;20051;-61
2023/08/28 08:58:21;;;;;;;3.78;0.80;;;19.00;99.90;;;;;;5087915;28;20082;-61
2023/08/28 09:00:48;;;;;;;2.25;0.80;;;19.10;99.90;;;;;;5067004;27;20074;-60
2023/08/28 09:03:14;;;;;;;3.58;1.02;;;19.20;99.90;;;;;;5069338;28;20116;-61
2023/08/28 09:05:41;;;;;;;1.85;0.90;;;19.40;99.90;;;;;;5078712;28;20052;-61
2023/08/28 09:08:08;;;;;;;2.50;1.13;;;19.70;99.90;;;;;;5072197;28;20044;-61
2023/08/28 09:10:34;;;;;;;1.85;0.70;;;19.90;99.90;;;;;;5098032;28;20048;-61
2023/08/28 09:13:00;;;;;;;2.13;1.00;;;19.90;99.90;;;;;;5083861;28;20044;-60
2023/08/28 09:15:26;;;;;;;2.25;0.82;;;19.80;99.90;;;;;;5085980;27;20040;-60
2023/08/28 09:17:52;;;;;;;3.35;0.80;;;19.70;99.90;;;;;;5074523;28;20062;-60
2023/08/28 09:20:21;;;;;;;2.70;0.80;;;19.50;99.90;;;;;;5092195;27;20040;-61
2023/08/28 09:22:51;;;;;;;2.17;0.90;;;19.50;99.90;;;;;;5092103;28;20081;-61
2023/08/28 09:25:18;;;;;;;2.25;0.88;;;19.40;99.90;;;;;;5089628;27;20042;-63
2023/08/28 09:27:46;;;;;;;1.92;0.80;;;19.60;99.90;;;;;;5068164;27;20046;-60
2023/08/28 09:30:36;;;;;;;2.67;1.00;;;19.80;99.90;;;;;;5054847;28;20428;-60
2023/08/28 09:33:07;;;;;;;5.32;1.08;;;20.10;99.90;;;;;;5081802;27;20048;-61
2023/08/28 09:35:40;;;;;;;4.93;1.00;;;20.10;99.90;;;;;;5087676;28;20075;-61
2023/08/28 09:38:07;;;;;;;2.60;0.80;;;19.80;99.90;;;;;;5051462;28;20127;-60
2023/08/28 09:40:40;;;;;;;2.97;0.88;;;19.60;99.90;;;;;;5086781;27;20040;-60
2023/08/28 09:43:16;;;;;;;1.23;0.90;;;19.40;99.90;;;;;;5068259;28;20039;-61
2023/08/28 09:45:43;;;;;;;1.98;0.88;;;19.30;99.90;;;;;;5083448;27;20048;-60
2023/08/28 09:48:10;;;;;;;0.80;0.60;;;19.10;99.90;;;;;;5088967;28;20065;-61
2023/08/28 09:50:39;;;;;;;1.77;0.70;;;19.00;99.90;;;;;;5084962;28;20522;-61
2023/08/28 09:53:13;;;;;;;1.25;0.77;;;18.90;99.90;;;;;;5053498;28;20057;-61
2023/08/28 09:55:52;;;;;;;0.68;0.65;;;18.70;99.90;;;;;;5085527;28;20834;-60
2023/08/28 09:58:23;;;;;;;2.50;0.77;;;18.60;99.90;;;;;;5067466;28;20074;-60
2023/08/28 10:00:50;;;;;;;2.75;0.80;;;18.50;99.90;;;;;;5065549;28;20057;-61
2023/08/28 10:03:16;;;;;;;1.85;0.80;;;18.40;99.90;;;;;;5085943;28;20051;-59
2023/08/28 10:05:46;;;;;;;1.98;0.93;;;18.40;99.90;;;;;;5084183;27;20118;-61
2023/08/28 10:08:14;;;;;;;3.25;1.02;;;18.30;99.90;;;;;;5087784;28;20039;-60
2023/08/28 10:10:51;;;;;;;3.78;1.00;;;18.30;99.90;;;;;;5084817;28;20426;-60
2023/08/28 10:13:21;;;;;;;4.13;1.02;;;18.30;99.90;;;;;;5085965;28;20737;-60
2023/08/28 10:15:57;;;;;;;1.45;0.90;;;18.30;99.90;;;;;;5086000;28;20071;-59
2023/08/28 10:18:39;;;;;;;2.58;1.15;;;18.40;99.90;;;;;;5083269;28;20043;-60
2023/08/28 10:21:06;;;;;;;3.33;0.90;;;18.40;99.90;;;;;;5086115;28;20393;-61
2023/08/28 10:23:34;;;;;;;2.83;1.08;;;18.50;99.90;;;;;;5079672;28;20316;-61
2023/08/28 10:26:02;;;;;;;3.38;1.00;;;18.60;99.90;;;;;;5085458;28;20040;-61
2023/08/28 10:28:30;;;;;;;2.28;0.90;;;18.70;99.90;;;;;;5088612;28;20028;-61
2023/08/28 10:30:57;;;;;;;5.90;1.15;;;18.80;99.90;;;;;;5066498;28;20585;-60
2023/08/28 10:33:23;;;;;;;1.40;1.00;;;19.00;99.90;;;;;;5085166;28;20754;-61
2023/08/28 10:35:54;;;;;;;2.97;0.82;;;19.20;99.90;;;;;;5085994;28;20077;-61
2023/08/28 10:38:20;;;;;;;3.47;0.80;;;19.40;99.90;;;;;;5066659;28;20676;-60
2023/08/28 10:40:49;;;;;;;2.78;1.10;;;19.50;99.90;;;;;;5064781;28;20134;-60
2023/08/28 10:43:16;;;;;;;3.10;1.10;;;19.50;99.90;;;;;;5085375;28;20036;-60
2023/08/28 10:45:43;;;;;;;3.22;0.93;;;19.60;99.90;;;;;;5079739;28;20132;-60
2023/08/28 10:48:09;;;;;;;2.20;0.73;;;19.90;99.90;;;;;;5067790;28;20044;-60
2023/08/28 10:50:38;;;;;;;1.52;1.10;;;20.10;99.90;;;;;;5065803;28;20101;-60
2023/08/28 10:53:05;;;;;;;2.63;1.10;;;20.30;99.90;;;;;;5070550;28;20052;-60
2023/08/28 10:55:31;;;;;;;3.30;1.13;;;20.60;99.90;;;;;;5078069;28;20047;-60
2023/08/28 10:58:02;;;;;;;3.45;1.50;;;21.00;99.90;;;;;;5081000;28;20074;-60
2023/08/28 11:00:29;;;;;;;2.75;1.00;;;21.40;99.90;;;;;;5081580;28;20048;-60
2023/08/28 11:03:10;;;;;;;5.05;1.30;;;21.60;99.90;;;;;;5052512;28;20533;-61
2023/08/28 11:05:38;;;;;;;1.65;1.25;;;22.00;99.90;;;;;;5082463;28;20146;-60
2023/08/28 11:08:06;;;;;;;2.85;1.15;;;22.30;99.90;;;;;;5069318;27;20050;-60
2023/08/28 11:10:33;;;;;;;4.93;1.13;;;22.50;99.90;;;;;;5090637;27;20054;-60
2023/08/28 11:13:05;;;;;;;1.75;1.00;;;22.70;99.90;;;;;;5085179;27;20043;-61
2023/08/28 11:15:31;;;;;;;9.57;1.80;;;22.60;99.90;;;;;;5084267;27;20058;-61
2023/08/28 11:18:19;;;;;;;16.23;2.28;;;22.30;99.90;;;;;;5052855;28;20048;-61
2023/08/28 11:20:52;;;;;;;2.80;1.02;;;22.00;99.90;;;;;;5085739;27;20132;-61
2023/08/28 11:23:23;;;;;;;2.03;0.80;;;21.70;99.90;;;;;;5086872;27;20040;-61
2023/08/28 11:25:50;;;;;;;3.50;1.20;;;21.40;99.90;;;;;;5070492;28;20123;-61
2023/08/28 11:28:29;;;;;;;3.03;1.20;;;21.20;99.90;;;;;;5089010;27;20048;-60
2023/08/28 11:31:05;;;;;;;5.07;1.10;;;21.00;99.90;;;;;;5087142;27;20040;-61
2023/08/28 11:33:39;;;;;;;3.85;1.05;;;20.90;99.90;;;;;;5081100;27;20502;-60
2023/08/28 11:36:05;;;;;;;2.25;0.85;;;20.80;99.90;;;;;;5082444;27;20154;-61
2023/08/28 11:38:31;;;;;;;4.53;1.10;;;20.70;99.90;;;;;;5085498;28;20048;-61
2023/08/28 11:41:04;;;;;;;7.68;1.20;;;20.60;99.90;;;;;;5083197;28;20050;-61
2023/08/28 11:43:35;;;;;;;1.90;1.00;;;20.60;99.90;;;;;;5072068;27;20051;-61
2023/08/28 11:46:01;;;;;;;2.35;1.00;;;20.70;99.90;;;;;;5086801;27;20051;-60
2023/08/28 11:48:35;;;;;;;1.13;0.82;;;20.60;99.90;;;;;;5087016;27;20043;-60
2023/08/28 11:51:03;;;;;;;2.63;0.90;;;20.60;99.90;;;;;;5086702;27;20039;-61
2023/08/28 11:53:41;;;;;;;1.83;1.10;;;20.60;99.90;;;;;;5067175;28;20039;-61
2023/08/28 11:56:12;;;;;;;1.85;0.88;;;20.60;99.90;;;;;;5070490;28;20450;-60
2023/08/28 11:58:39;;;;;;;2.17;1.15;;;20.60;99.90;;;;;;5087513;27;20040;-61
2023/08/28 12:01:12;;;;;;;4.45;1.10;;;20.70;99.90;;;;;;5083806;27;20048;-61
2023/08/28 12:03:39;;;;;;;1.88;0.90;;;20.80;99.90;;;;;;5081269;28;20040;-61
2023/08/28 12:06:07;;;;;;;2.13;0.77;;;20.80;99.90;;;;;;5066391;27;20055;-61
2023/08/28 12:08:41;;;;;;;3.05;0.68;;;20.90;99.90;;;;;;5087239;27;20080;-61
2023/08/28 12:11:09;;;;;;;2.03;0.73;;;21.00;99.90;;;;;;5084576;27;20039;-61
2023/08/28 12:13:36;;;;;;;1.70;0.52;;;21.10;99.90;;;;;;5060453;28;20096;-61
2023/08/28 12:16:19;;;;;;;1.15;0.68;;;21.40;99.90;;;;;;5086014;27;20574;-61
2023/08/28 12:18:52;;;;;;;1.10;0.60;;;21.80;99.90;;;;;;5088435;27;20260;-60
2023/08/28 12:21:36;;;;;;;1.65;0.70;;;22.10;99.90;;;;;;5086147;27;20184;-61
2023/08/28 12:24:06;;;;;;;1.83;0.80;;;22.50;99.90;;;;;;5086427;27;20386;-60
2023/08/28 12:26:33;;;;;;;2.30;0.65;;;22.70;99.90;;;;;;5087931;27;20179;-60
2023/08/28 12:29:00;;;;;;;3.58;1.10;;;22.60;99.90;;;;;;5084152;28;20062;-60
2023/08/28 12:31:27;;;;;;;1.40;0.70;;;22.50;99.90;;;;;;5081245;27;20060;-61
2023/08/28 12:33:55;;;;;;;1.63;0.75;;;22.30;99.90;;;;;;5070463;28;20044;-61
2023/08/28 12:36:33;;;;;;;0.90;0.50;;;22.00;99.90;;;;;;5068737;28;20047;-60
2023/08/28 12:38:59;;;;;;;1.30;0.60;;;21.80;99.90;;;;;;5083639;27;20394;-60
2023/08/28 12:41:25;;;;;;;1.20;0.73;;;21.60;99.90;;;;;;5085832;27;20115;-61
2023/08/28 12:43:51;;;;;;;0.90;0.70;;;21.50;99.90;;;;;;5085858;28;20490;-61
2023/08/28 12:46:17;;;;;;;1.08;0.60;;;21.30;99.90;;;;;;5087049;28;21030;-61
2023/08/28 12:48:45;;;;;;;1.67;0.70;;;21.20;99.90;;;;;;5087094;27;20047;-61
2023/08/28 12:51:11;;;;;;;4.03;0.90;;;21.10;99.90;;;;;;5084734;27;20043;-61